Main page
METAR-TAF:

METAR-TAF

Airports :

Captain Aníbal Arab Airport

Cobija, Bolivia

latitude: 11-02S, longitude: 068-47W, elevation: 235 m

Current weather observation

The report was made 52 minutes ago, at 19:00 UTC
Wind 3 kt from the South/Southeast
Temperature 29°C
Humidity 43%
Pressure 1017 hPa
Visibility 10 km or more

METAR: SLCO 161900Z 16003KT 9999 NSC 29/15 Q1017

Time: 15:52 (19:52 UTC)

Forecast

The report was made 3 hours and 52 minutes ago, at 16:00 UTC
Forecast valid from 16 at 18 UTC to 17 at 18 UTC
Wind 10 kt from the South/Southeast
Visibility 10 km or more
Few clouds at a height of 2000 ft
Becoming
from 16 at 23 UTC to 17 at 02 UTC
Wind kt from the North
Becoming
from 17 at 12 UTC to 17 at 15 UTC
Wind 10 kt from the South/Southeast

TAF: SLCO 161600Z 1618/1718 16010KT 9999 FEW020 TX28/1619Z TN14/1711Z BECMG 1623/1702 00000KT BECMG 1712/1715 16010KT

Weather observations and forecasts of more than 4000 airports (METAR and TAF reports).

The available stations are represented by yellow and red dots on the map.

Hover mouse over dot to see the name of the station.

Then click to see weather observations and forecasts.

To change the map : click on the green buttons with a black cross to zoom in, on the green button with a dash to zoom out, or on the green arrows for adjacent maps.


METAR-TAF: